^^
Station Historical Data
Daily Summary for September 12, 2017 Units:  Metric    English   Both
« Previous Day
Next Day »
Daily Weekly Monthly Yearly Custom
  High: Low: Average:
Temperature: 37.7 °C 16.3 °C 23.4 °C
Dew Point: 6.4 °C -5.5 °C 0.6 °C
Humidity: 52% 7% 26%
Wind Speed: 30.6km/h 0km/h 8.7km/h
Wind Gust: 40.2km/h - -
Wind- - SW
Pressure: 1011.4 hPa 1004.3 hPa -
Precipitation: 0 mm    
Historical Graphs
 
 
Tabular Data for September 12, 2017
Time Temperature Dew Point Pressure Wind Wind Speed Wind Gust Humidity Rainfall Rate (Hourly) solar Conditions
00:00 21.2 °C 1.5 °C 1011.4 hPa SSW 13 km/h 13 km/h 27% 0 mm 0.0 W/m2
00:05 21.1 °C 1.4 °C 1011.4 hPa SSW 9.7 km/h 11.3 km/h 27% 0 mm 0.0 W/m2
00:10 21 °C 1.3 °C 1011.4 hPa SSW 11.1 km/h 11.3 km/h 27% 0 mm 0.0 W/m2
00:20 20.8 °C 1.6 °C 1011.1 hPa SSW 13 km/h 14.5 km/h 28% 0 mm 0.0 W/m2
00:25 20.7 °C 1.5 °C 1011.1 hPa SSW 11.1 km/h 12.9 km/h 28% 0 mm 0.0 W/m2
00:30 20.6 °C 1.9 °C 1011.1 hPa SSW 11.1 km/h 12.9 km/h 29% 0 mm 0.0 W/m2
00:36 20.5 °C 2.3 °C 1011.1 hPa SSW 13 km/h 14.5 km/h 30% 0 mm 0.0 W/m2
00:41 20.4 °C 2.2 °C 1011.1 hPa SSW 9.7 km/h 12.9 km/h 30% 0 mm 0.0 W/m2
00:46 20.3 °C 2.2 °C 1011.1 hPa SSW 11.1 km/h 12.9 km/h 30% 0 mm 0.0 W/m2
00:51 20.2 °C 2.1 °C 1011.1 hPa SSW 7.9 km/h 12.9 km/h 30% 0 mm 0.0 W/m2
01:01 20.2 °C 2.1 °C 1011.1 hPa SSW 9.7 km/h 12.9 km/h 30% 0 mm 0.0 W/m2
01:06 20.3 °C 2.2 °C 1011.1 hPa SSW 11.1 km/h 11.3 km/h 30% 0 mm 0.0 W/m2
01:11 20.2 °C 2.5 °C 1011.1 hPa SSW 11.1 km/h 11.3 km/h 31% 0 mm 0.0 W/m2
01:16 20.1 °C 2.4 °C 1011.1 hPa SSW 7.9 km/h 9.7 km/h 31% 0 mm 0.0 W/m2
01:21 20 °C 2.4 °C 1010.7 hPa SSW 7.9 km/h 11.3 km/h 31% 0 mm 0.0 W/m2
01:26 19.9 °C 2.3 °C 1010.7 hPa SSW 4.7 km/h 6.4 km/h 31% 0 mm 0.0 W/m2
01:37 19.7 °C 2.1 °C 1010.7 hPa SSW 7.9 km/h 11.3 km/h 31% 0 mm 0.0 W/m2
01:42 19.7 °C 2.1 °C 1010.7 hPa SSW 6.4 km/h 9.7 km/h 31% 0 mm 0.0 W/m2
01:47 19.7 °C 2.1 °C 1010.7 hPa Calm   3.2 km/h 31% 0 mm 0.0 W/m2
01:52 19.6 °C 2 °C 1010.7 hPa Calm     31% 0 mm 0.0 W/m2
02:03 19.7 °C 1.6 °C 1010.4 hPa Calm     30% 0 mm 0.0 W/m2
02:08 19.7 °C 1.6 °C 1010.4 hPa Calm     30% 0 mm 0.0 W/m2
02:18 19.4 °C 1.4 °C 1010.4 hPa Calm     30% 0 mm 0.0 W/m2
02:29 19.6 °C 1.5 °C 1010.4 hPa Calm     30% 0 mm 0.0 W/m2
02:34 19.8 °C 1.2 °C 1010.4 hPa Calm     29% 0 mm 0.0 W/m2
02:39 20.3 °C 1.7 °C 1010.4 hPa Calm     29% 0 mm 0.0 W/m2
02:44 20.4 °C 1.3 °C 1010 hPa Calm     28% 0 mm 0.0 W/m2
02:50 20.4 °C 1.8 °C 1010 hPa Calm     29% 0 mm 0.0 W/m2
02:55 20.2 °C 2.1 °C 1010 hPa Calm     30% 0 mm 0.0 W/m2
03:00 19.8 °C 1.7 °C 1010 hPa Calm     30% 0 mm 0.0 W/m2
03:05 19.6 °C 2 °C 1010 hPa Calm     31% 0 mm 0.0 W/m2
03:10 19.4 °C 1.8 °C 1010 hPa Calm     31% 0 mm 0.0 W/m2
03:15 19.2 °C 1.7 °C 1010 hPa Calm     31% 0 mm 0.0 W/m2
03:21 18.8 °C 1.8 °C 1010 hPa Calm     32% 0 mm 0.0 W/m2
03:26 18.7 °C 1.7 °C 1009.7 hPa Calm     32% 0 mm 0.0 W/m2
03:31 18.7 °C 1.7 °C 1009.7 hPa Calm     32% 0 mm 0.0 W/m2
03:36 18.6 °C 1.6 °C 1009.7 hPa Calm     32% 0 mm 0.0 W/m2
03:42 18.6 °C 1.6 °C 1009.7 hPa Calm     32% 0 mm 0.0 W/m2
03:47 18.5 °C 1.9 °C 1009.7 hPa Calm     33% 0 mm 0.0 W/m2
03:52 18.5 °C 1.5 °C 1009.4 hPa Calm     32% 0 mm 0.0 W/m2
03:58 18.8 °C 1.3 °C 1009.4 hPa Calm     31% 0 mm 0.0 W/m2
04:03 18.8 °C 1.3 °C 1009.4 hPa Calm     31% 0 mm 0.0 W/m2
04:09 18.9 °C 1.4 °C 1009.4 hPa Calm     31% 0 mm 0.0 W/m2
04:14 19.1 °C 1.6 °C 1009.4 hPa Calm     31% 0 mm 0.0 W/m2
04:19 19.1 °C 1.6 °C 1009.4 hPa Calm     31% 0 mm 0.0 W/m2
04:24 19.2 °C 1.7 °C 1009 hPa Calm     31% 0 mm 0.0 W/m2
04:29 19.2 °C 1.7 °C 1009 hPa Calm     31% 0 mm 0.0 W/m2
04:34 19.3 °C 1.7 °C 1009 hPa Calm     31% 0 mm 0.0 W/m2
04:40 19.4 °C 1.4 °C 1009 hPa Calm     30% 0 mm 0.0 W/m2
04:45 19.4 °C 1.4 °C 1009 hPa Calm     30% 0 mm 0.0 W/m2
04:50 19.4 °C 0.9 °C 1009 hPa Calm     29% 0 mm 0.0 W/m2
05:00 19.4 °C 1.4 °C 1009 hPa Calm     30% 0 mm 0.0 W/m2
05:05 19.3 °C 0.8 °C 1009 hPa Calm     29% 0 mm 0.0 W/m2
05:16 19.3 °C 1.3 °C 1009.4 hPa Calm     30% 0 mm 0.0 W/m2
05:22 19.3 °C 0.8 °C 1009.4 hPa Calm     29% 0 mm 0.0 W/m2
05:27 19.1 °C 0.6 °C 1009.4 hPa Calm     29% 0 mm 0.0 W/m2
05:32 19.1 °C 0.6 °C 1009.7 hPa Calm     29% 0 mm 0.0 W/m2
05:37 19.1 °C 0.2 °C 1009.7 hPa Calm     28% 0 mm 0.0 W/m2
05:43 19.1 °C 0.6 °C 1009.4 hPa Calm     29% 0 mm 0.0 W/m2
05:49 19.2 °C 0.7 °C 1009.4 hPa Calm     29% 0 mm 0.0 W/m2
05:55 19.2 °C 0.7 °C 1009.4 hPa Calm     29% 0 mm 0.0 W/m2
06:01 19.1 °C 0.6 °C 1009.4 hPa Calm     29% 0 mm 0.0 W/m2
06:08 18.7 °C 0.8 °C 1009.4 hPa Calm     30% 0 mm 0.0 W/m2
06:14 18.4 °C 1 °C 1009.7 hPa Calm     31% 0 mm 0.0 W/m2
06:29 17.9 °C 0.5 °C 1009.7 hPa Calm     31% 0 mm 0.0 W/m2
06:35 17.8 °C 0.4 °C 1009.7 hPa Calm     31% 0 mm 0.0 W/m2
06:44 17.6 °C 0.3 °C 1009.7 hPa Calm     31% 0 mm 0.0 W/m2
06:55 17.4 °C 0.1 °C 1009.7 hPa Calm     31% 0 mm 0.0 W/m2
07:07 17.2 °C 0.4 °C 1009.7 hPa Calm     32% 0 mm 12.0 W/m2
07:27 17.5 °C 0.2 °C 1010 hPa Calm     31% 0 mm 26.0 W/m2
08:28 20.5 °C -2.6 °C 1010 hPa Calm     21% 0 mm 121.0 W/m2
08:43 21.6 °C -1.7 °C 1010.4 hPa Calm     21% 0 mm 183.0 W/m2
09:14 23.3 °C -2.4 °C 1010.4 hPa Calm     18% 0 mm 355.0 W/m2
09:30 23.7 °C -2.8 °C 1010 hPa Calm     17% 0 mm 401.0 W/m2
09:46 24.1 °C -2.5 °C 1010.4 hPa Calm     17% 0 mm 461.0 W/m2
09:59 24.6 °C -2.9 °C 1010.4 hPa Calm     16% 0 mm 492.0 W/m2
10:11 25.1 °C -2.5 °C 1010.4 hPa Calm     16% 0 mm 517.0 W/m2
10:24 25.9 °C -2.7 °C 1010.4 hPa Calm     15% 0 mm 555.0 W/m2
10:50 26.9 °C -3.8 °C 1010 hPa West 3.2 km/h 12.9 km/h 13% 0 mm 621.0 W/m2
10:58 27.5 °C -3.4 °C 1010 hPa West 16.3 km/h 17.7 km/h 13% 0 mm 633.0 W/m2
11:21 28.2 °C -3.9 °C 1010 hPa WNW 30.6 km/h 30.6 km/h 12% 0 mm 679.0 W/m2
11:50 29.7 °C -3.9 °C 1009 hPa NW 6.4 km/h 25.7 km/h 11% 0 mm 722.0 W/m2
12:30 31.5 °C -5.2 °C 1008.4 hPa North 19.5 km/h 30.6 km/h 9% 0 mm 301.0 W/m2
13:11 33.2 °C -5.5 °C 1007.3 hPa North 17.7 km/h 24.1 km/h 8% 0 mm 751.0 W/m2
13:26 33.9 °C -5 °C 1007 hPa North 20.9 km/h 29 km/h 8% 0 mm 735.0 W/m2
13:42 34.2 °C -4.8 °C 1007 hPa North 7.9 km/h 24.1 km/h 8% 0 mm 737.0 W/m2
14:09 35.4 °C -3.9 °C 1006.3 hPa NNW 20.9 km/h 22.5 km/h 8% 0 mm 696.0 W/m2
14:17 36 °C -3.4 °C 1006 hPa NNW 22.7 km/h 22.7 km/h 8% 0 mm 675.0 W/m2
14:26 36.3 °C -3.2 °C 1005.6 hPa North 17.7 km/h 19.3 km/h 8% 0 mm 661.0 W/m2
14:32 36.7 °C -4.7 °C 1005.6 hPa North 20.9 km/h 20.9 km/h 7% 0 mm 633.0 W/m2
14:41 37.2 °C -4.3 °C 1005.3 hPa North 11.1 km/h 33.8 km/h 7% 0 mm 636.0 W/m2
14:52 37.4 °C -4.2 °C 1005 hPa North 19.5 km/h 29 km/h 7% 0 mm 582.0 W/m2
14:57 37.1 °C -4.4 °C 1005 hPa NNE 13 km/h 40.2 km/h 7% 0 mm 591.0 W/m2
15:02 37.1 °C -4.4 °C 1004.6 hPa North 17.7 km/h 38.6 km/h 7% 0 mm 592.0 W/m2
15:07 37.3 °C -4.3 °C 1004.6 hPa North 27.4 km/h 38.6 km/h 7% 0 mm 585.0 W/m2
15:12 37.4 °C -4.2 °C 1004.6 hPa NNW 6.4 km/h 25.7 km/h 7% 0 mm 557.0 W/m2
15:27 37.4 °C -4.2 °C 1004.6 hPa NNW 11.1 km/h 32.2 km/h 7% 0 mm 557.0 W/m2
15:32 37.7 °C -4 °C 1004.6 hPa NNW 13 km/h 22.5 km/h 7% 0 mm 626.0 W/m2
15:42 37.7 °C -4 °C 1004.3 hPa North 20.9 km/h 32.2 km/h 7% 0 mm 239.0 W/m2
15:47 37.2 °C -4.3 °C 1004.3 hPa North 17.7 km/h 37 km/h 7% 0 mm 158.0 W/m2
15:54 36.8 °C -4.6 °C 1004.3 hPa North 17.7 km/h 35.4 km/h 7% 0 mm 193.0 W/m2
16:00 36.7 °C -4.7 °C 1004.3 hPa NNW 24.1 km/h 37 km/h 7% 0 mm 214.0 W/m2
16:12 36.7 °C -4.7 °C 1004.3 hPa NNW 19.5 km/h 24.1 km/h 7% 0 mm 394.0 W/m2
16:28 36.7 °C -4.7 °C 1004.3 hPa NNW 17.7 km/h 30.6 km/h 7% 0 mm 221.0 W/m2
16:42 36.6 °C -4.8 °C 1004.3 hPa NNW 13 km/h 29 km/h 7% 0 mm 163.0 W/m2
16:57 35.1 °C -2.5 °C 1005 hPa SW 22.7 km/h 22.7 km/h 9% 0 mm 155.0 W/m2
17:32 33.2 °C -1.2 °C 1005.3 hPa SSW 20.9 km/h 27.4 km/h 11% 0 mm 197.0 W/m2
17:46 32.2 °C -0.8 °C 1005.6 hPa South 14.3 km/h 25.7 km/h 12% 0 mm 114.0 W/m2
18:22 29.7 °C 2 °C 1006 hPa SSW 22.7 km/h 22.7 km/h 17% 0 mm 26.0 W/m2
18:37 28.6 °C 2.7 °C 1006.3 hPa SSW 16.3 km/h 22.5 km/h 19% 0 mm 7.0 W/m2
18:51 27.8 °C 2.8 °C 1006.7 hPa SW 20.9 km/h 22.5 km/h 20% 0 mm 0.0 W/m2
19:03 27.3 °C 3.1 °C 1007 hPa SSW 19.5 km/h 24.1 km/h 21% 0 mm 0.0 W/m2
19:17 26.8 °C 3.3 °C 1007.3 hPa SW 17.7 km/h 22.5 km/h 22% 0 mm 0.0 W/m2
19:29 26.1 °C 4 °C 1007.3 hPa SW 20.9 km/h 20.9 km/h 24% 0 mm 0.0 W/m2
19:43 25.2 °C 3.2 °C 1007.7 hPa SW 24.1 km/h 32.2 km/h 24% 0 mm 0.0 W/m2
20:56 21.8 °C 3.9 °C 1009.4 hPa SSW 11.1 km/h 17.7 km/h 31% 0 mm 0.0 W/m2
21:14 21.4 °C 4 °C 1009.4 hPa SSW 13 km/h 22.5 km/h 32% 0 mm 0.0 W/m2
21:29 20.7 °C 4.3 °C 1009.7 hPa SW 17.7 km/h 20.9 km/h 34% 0 mm 0.0 W/m2
21:46 19.9 °C 4.4 °C 1010 hPa SW 16.3 km/h 22.5 km/h 36% 0 mm 0.0 W/m2
21:51 19.8 °C 4.3 °C 1010 hPa SW 19.5 km/h 22.5 km/h 36% 0 mm 0.0 W/m2
21:56 19.7 °C 4.6 °C 1010 hPa SW 14.3 km/h 24.1 km/h 37% 0 mm 0.0 W/m2
22:14 19.2 °C 4.9 °C 1010 hPa SW 19.5 km/h 24.1 km/h 39% 0 mm 0.0 W/m2
22:23 18.8 °C 4.9 °C 1010 hPa SW 20.9 km/h 22.5 km/h 40% 0 mm 0.0 W/m2
22:32 18.6 °C 5.1 °C 1010 hPa SW 17.7 km/h 22.5 km/h 41% 0 mm 0.0 W/m2
22:39 18.3 °C 5.2 °C 1010 hPa SW 16.3 km/h 17.7 km/h 42% 0 mm 0.0 W/m2
22:49 18.1 °C 5.3 °C 1010 hPa SW 14.3 km/h 19.3 km/h 43% 0 mm 0.0 W/m2
22:59 17.8 °C 5.4 °C 1010.4 hPa SW 11.1 km/h 16.1 km/h 44% 0 mm 0.0 W/m2
23:04 17.7 °C 5.6 °C 1010.4 hPa SW 6.4 km/h 17.7 km/h 45% 0 mm 0.0 W/m2
23:14 17.4 °C 5.7 °C 1010.4 hPa SW 17.7 km/h 20.9 km/h 46% 0 mm 0.0 W/m2
23:25 17.1 °C 5.7 °C 1010 hPa SW 17.7 km/h 25.7 km/h 47% 0 mm 0.0 W/m2
23:34 16.7 °C 5.9 °C 1010 hPa SW 17.7 km/h 22.5 km/h 49% 0 mm 0.0 W/m2
23:39 16.6 °C 6.1 °C 1010 hPa SW 20.9 km/h 22.5 km/h 50% 0 mm 0.0 W/m2
23:45 16.5 °C 6 °C 1010.4 hPa SW 22.7 km/h 25.7 km/h 50% 0 mm 0.0 W/m2
23:50 16.4 °C 6.2 °C 1010.4 hPa SW 20.9 km/h 22.5 km/h 51% 0 mm 0.0 W/m2
23:55 16.3 °C 6.4 °C 1010.4 hPa SW 16.3 km/h 19.3 km/h 52% 0 mm 0.0 W/m2
Canyon Roadhouse, Fishriver Canyon, Namibia
Compliments of Weather Underground - 2.25 mb